Time;durP1;ratioP1;P1;durP2;ratioP2;P2;SDS_P1;SDS_P2;PMS_P1;PMS_P2;Temp;Humidity;BMP_temperature;BMP_pressure;BME280_temperature;BME280_humidity;BME280_pressure;Samples;Min_cycle;Max_cycle;Signal;HPM_P1;HPM_P2
2023/09/11 00:03:37;;;;;;;11.27;10.27;;;18.30;99.90;;;19.11;97.57;97922.22;10301077;28;20246;-79
2023/09/11 00:08:41;;;;;;;11.93;10.88;;;18.20;99.90;;;19.09;97.54;97923.88;10309723;28;20235;-79
2023/09/11 00:13:45;;;;;;;11.38;10.32;;;18.20;99.90;;;19.12;97.72;97916.19;10318215;28;20227;-80
2023/09/11 00:18:49;;;;;;;11.93;10.10;;;18.20;99.90;;;19.06;97.44;97915.16;10321146;28;20235;-79
2023/09/11 00:23:53;;;;;;;11.13;10.23;;;18.20;99.90;;;18.99;97.43;97900.28;10322351;28;20326;-80
2023/09/11 00:28:56;;;;;;;11.57;10.60;;;18.10;99.90;;;19.03;97.42;97896.94;10325424;28;20319;-80
2023/09/11 00:34:00;;;;;;;11.65;10.68;;;18.10;99.90;;;18.95;98.03;97895.88;10311296;28;20322;-80
2023/09/11 00:39:04;;;;;;;12.27;11.27;;;18.10;99.90;;;18.87;99.13;97893.09;10315700;28;20270;-76
2023/09/11 00:44:07;;;;;;;11.98;10.93;;;18.00;99.90;;;18.85;99.03;97893.03;10304462;28;20291;-77
2023/09/11 00:49:12;;;;;;;12.45;11.45;;;18.00;99.90;;;18.78;99.77;97887.69;10290740;28;20321;-79
2023/09/11 00:54:16;;;;;;;12.30;11.40;;;17.90;99.90;;;18.82;99.30;97885.19;10303217;28;20807;-82
2023/09/11 00:59:20;;;;;;;12.43;11.52;;;17.90;99.90;;;18.67;100.00;97885.66;10303300;28;20230;-80
2023/09/11 01:04:25;;;;;;;12.10;11.00;;;17.80;99.90;;;18.52;100.00;97881.81;10295447;28;20237;-80
2023/09/11 01:09:28;;;;;;;12.70;11.60;;;17.70;99.90;;;18.57;100.00;97878.53;10302842;28;20266;-80
2023/09/11 01:14:33;;;;;;;12.52;11.25;;;17.70;99.90;;;18.57;100.00;97880.19;10293627;28;20372;-81
2023/09/11 01:19:54;;;;;;;12.13;11.13;;;17.70;99.90;;;18.45;100.00;97879.03;10298292;28;20247;-80
2023/09/11 01:25:21;;;;;;;12.38;11.20;;;17.60;99.90;;;18.47;100.00;97881.69;10301630;28;20233;-81
2023/09/11 01:30:27;;;;;;;12.15;11.25;;;17.60;99.90;;;18.44;99.97;97872.13;10294195;28;20316;-79
2023/09/11 01:35:30;;;;;;;12.48;11.18;;;17.60;99.90;;;18.46;99.09;97872.19;10289321;28;20235;-79
2023/09/11 01:40:36;;;;;;;11.23;10.25;;;17.50;99.90;;;18.33;99.58;97868.38;10300439;28;20218;-79
2023/09/11 01:45:42;;;;;;;12.30;11.18;;;17.40;99.90;;;18.19;99.88;97868.00;10294578;28;20222;-79
2023/09/11 01:50:46;;;;;;;11.30;10.40;;;17.30;99.90;;;18.18;100.00;97865.38;10295832;28;20222;-77
2023/09/11 01:55:49;;;;;;;12.35;11.25;;;17.30;99.90;;;18.05;100.00;97873.63;10301501;28;20235;-78
2023/09/11 02:00:54;;;;;;;11.27;10.25;;;17.20;99.90;;;18.16;100.00;97869.63;10304939;28;21037;-80
2023/09/11 02:05:57;;;;;;;12.93;11.73;;;17.30;99.90;;;18.18;100.00;97878.31;10307164;28;20662;-79
2023/09/11 02:11:01;;;;;;;12.38;11.38;;;17.20;99.90;;;17.98;100.00;97876.06;10318698;28;20313;-78
2023/09/11 02:16:05;;;;;;;12.70;11.55;;;17.20;99.90;;;18.01;100.00;97870.97;10321382;28;20234;-79
2023/09/11 02:21:09;;;;;;;12.57;11.52;;;17.20;99.90;;;18.00;100.00;97873.53;10318990;28;20237;-78
2023/09/11 02:26:12;;;;;;;13.35;12.13;;;17.20;99.90;;;18.09;100.00;97872.91;10316275;28;20226;-80
2023/09/11 02:31:17;;;;;;;12.68;11.57;;;17.20;99.90;;;18.06;100.00;97883.16;10308918;28;20330;-78
2023/09/11 02:36:20;;;;;;;12.40;11.30;;;17.20;99.90;;;18.04;100.00;97877.06;10301075;28;20228;-80
2023/09/11 02:41:23;;;;;;;12.52;11.38;;;17.10;99.90;;;17.89;100.00;97886.16;10306569;28;20293;-79
2023/09/11 02:46:28;;;;;;;12.52;11.35;;;17.00;99.90;;;17.88;100.00;97884.38;10307274;28;20226;-79
2023/09/11 02:51:31;;;;;;;12.52;11.43;;;17.00;99.90;;;17.75;100.00;97883.13;10299544;28;20227;-78
2023/09/11 02:56:37;;;;;;;11.77;10.85;;;16.90;99.90;;;17.65;100.00;97873.34;10309199;28;20234;-79
2023/09/11 03:01:43;;;;;;;12.55;11.45;;;16.80;99.90;;;17.71;100.00;97864.88;10315714;28;20226;-80
2023/09/11 03:06:46;;;;;;;13.10;12.00;;;16.90;99.90;;;17.69;100.00;97866.56;10310900;28;20238;-77
2023/09/11 03:11:50;;;;;;;13.82;12.63;;;16.90;99.90;;;17.67;100.00;97863.06;10308051;28;21237;-80
2023/09/11 03:16:54;;;;;;;13.27;12.20;;;16.80;99.90;;;17.76;100.00;97863.31;10307653;28;20227;-79
2023/09/11 03:21:57;;;;;;;13.27;12.27;;;16.80;99.90;;;17.64;100.00;97857.78;10307731;28;20227;-79
2023/09/11 03:27:01;;;;;;;13.13;11.93;;;16.80;99.90;;;17.61;100.00;97863.75;10309076;28;20255;-79
2023/09/11 03:32:07;;;;;;;13.07;11.98;;;16.70;99.90;;;17.63;100.00;97851.75;10313874;28;20232;-79
2023/09/11 03:37:10;;;;;;;14.98;13.73;;;16.70;99.90;;;17.61;100.00;97855.13;10314958;28;20227;-79
2023/09/11 03:42:13;;;;;;;14.75;13.50;;;16.80;99.90;;;17.49;100.00;97853.06;10313282;28;20669;-82
2023/09/11 03:47:18;;;;;;;14.50;13.27;;;16.70;99.90;;;17.52;100.00;97863.47;10322832;28;20235;-77
2023/09/11 03:52:21;;;;;;;14.48;13.32;;;16.70;99.90;;;17.60;100.00;97866.28;10312559;28;20226;-82
2023/09/11 03:57:25;;;;;;;13.77;12.68;;;16.70;99.90;;;17.55;100.00;97879.94;10319611;28;20234;-81
2023/09/11 04:02:29;;;;;;;13.73;12.43;;;16.60;99.90;;;17.58;100.00;97870.53;10318398;28;20711;-78
2023/09/11 04:07:33;;;;;;;13.05;11.95;;;16.50;99.90;;;17.41;100.00;97858.00;10337570;28;20238;-81
2023/09/11 04:12:36;;;;;;;13.32;12.23;;;16.40;99.90;;;17.39;100.00;97861.34;10319116;28;20227;-81
2023/09/11 04:17:41;;;;;;;12.80;11.77;;;16.50;99.90;;;17.28;100.00;97850.69;10309913;28;20840;-78
2023/09/11 04:22:44;;;;;;;14.35;13.15;;;16.40;99.90;;;17.21;100.00;97849.63;10312165;28;20653;-81
2023/09/11 04:27:47;;;;;;;14.68;13.27;;;16.40;99.90;;;17.09;100.00;97844.97;10320176;28;20230;-80
2023/09/11 04:32:52;;;;;;;14.48;13.38;;;16.40;99.90;;;17.07;100.00;97838.88;10320253;28;20218;-82
2023/09/11 04:37:55;;;;;;;14.82;13.63;;;16.30;99.90;;;17.11;100.00;97845.91;10308697;28;20234;-80
2023/09/11 04:42:59;;;;;;;15.50;14.20;;;16.30;99.90;;;17.07;100.00;97851.78;10313418;28;20242;-80
2023/09/11 04:48:04;;;;;;;14.57;13.38;;;16.30;99.90;;;17.02;100.00;97849.88;10310415;28;20298;-80
2023/09/11 04:53:07;;;;;;;15.20;13.88;;;16.30;99.90;;;17.03;100.00;97847.38;10311634;28;20235;-80
2023/09/11 04:58:10;;;;;;;14.13;12.93;;;16.30;99.90;;;17.13;100.00;97852.81;10327476;28;20708;-80
2023/09/11 05:03:15;;;;;;;13.88;12.50;;;16.30;99.90;;;17.23;100.00;97868.66;10312249;28;20235;-80
2023/09/11 05:08:18;;;;;;;13.80;12.55;;;16.30;99.90;;;17.18;100.00;97866.75;10319994;28;20747;-78
2023/09/11 05:13:22;;;;;;;14.57;13.27;;;16.30;99.90;;;17.16;100.00;97871.84;10322310;28;20255;-77
2023/09/11 05:18:26;;;;;;;13.75;12.65;;;16.30;99.90;;;17.20;100.00;97878.00;10300916;28;20268;-77
2023/09/11 05:23:31;;;;;;;13.85;12.65;;;16.20;99.90;;;17.21;100.00;97877.19;10313548;28;21018;-79
2023/09/11 05:28:34;;;;;;;14.70;13.50;;;16.30;99.90;;;17.32;100.00;97880.97;10304226;28;20234;-78
2023/09/11 05:33:39;;;;;;;14.82;13.55;;;16.40;99.90;;;17.22;100.00;97881.50;10305828;28;20278;-80
2023/09/11 05:38:42;;;;;;;14.25;12.95;;;16.40;99.90;;;17.30;100.00;97877.44;10309829;28;20242;-80
2023/09/11 05:43:46;;;;;;;14.57;13.25;;;16.40;99.90;;;17.69;100.00;97882.94;10306981;28;20227;-78
2023/09/11 05:48:51;;;;;;;15.27;13.93;;;16.70;99.90;;;18.21;97.62;97875.81;10305189;28;20336;-79
2023/09/11 05:53:54;;;;;;;13.73;12.50;;;17.10;99.90;;;18.75;93.99;97882.44;10307427;28;20276;-79
2023/09/11 05:58:58;;;;;;;13.93;12.70;;;17.60;99.90;;;19.30;90.77;97882.03;10306096;28;20231;-77
2023/09/11 06:04:03;;;;;;;13.10;11.85;;;17.90;99.90;;;19.83;88.79;97881.50;10306088;28;20223;-79
2023/09/11 06:09:08;;;;;;;12.57;11.63;;;18.40;99.90;;;20.01;88.10;97884.47;10307511;28;20249;-77
2023/09/11 06:14:11;;;;;;;12.95;11.75;;;18.70;99.90;;;20.20;86.34;97883.13;10303626;28;20621;-79
2023/09/11 06:19:16;;;;;;;13.32;12.13;;;18.80;99.90;;;20.13;86.42;97886.44;10301270;28;20654;-80
2023/09/11 06:24:19;;;;;;;13.57;12.55;;;18.90;99.90;;;20.77;84.41;97888.50;10311880;28;20752;-79
2023/09/11 06:29:23;;;;;;;13.20;12.20;;;19.40;99.90;;;21.45;81.05;97875.75;10316819;28;20227;-80
2023/09/11 06:34:29;;;;;;;13.30;12.23;;;19.80;99.90;;;21.95;79.46;97882.50;10317714;28;20224;-80
2023/09/11 06:39:33;;;;;;;14.27;13.02;;;20.40;99.90;;;22.30;77.47;97877.72;10322426;28;20242;-81
2023/09/11 06:44:36;;;;;;;13.77;12.52;;;20.60;99.90;;;22.91;74.01;97888.72;10320580;28;20230;-80
2023/09/11 06:49:40;;;;;;;13.13;12.02;;;21.40;99.90;;;23.28;72.59;97875.16;10324099;28;20232;-79
2023/09/11 06:54:44;;;;;;;13.80;12.43;;;21.70;99.90;;;23.75;70.77;97883.31;10331585;28;20249;-79
2023/09/11 06:59:47;;;;;;;13.38;12.20;;;22.00;99.90;;;24.31;68.61;97873.06;10322028;28;20732;-78
2023/09/11 07:04:52;;;;;;;13.07;11.98;;;22.30;99.90;;;25.20;64.85;97873.22;10320212;28;20230;-78
2023/09/11 07:09:56;;;;;;;13.75;12.52;;;23.00;99.90;;;25.87;61.89;97867.88;10316546;28;20245;-79
2023/09/11 07:14:59;;;;;;;12.82;11.73;;;23.50;99.90;;;26.09;61.40;97859.91;10322788;28;20247;-78
2023/09/11 07:20:04;;;;;;;14.27;13.07;;;23.60;99.90;;;25.59;63.40;97873.13;10320374;28;20235;-80
2023/09/11 07:25:12;;;;;;;13.63;12.52;;;23.80;99.90;;;25.54;64.33;97872.28;10313728;28;20223;-82
2023/09/11 07:30:15;;;;;;;13.65;12.32;;;24.00;99.90;;;25.58;65.30;97881.88;10324953;28;20284;-79
2023/09/11 07:35:20;;;;;;;13.70;12.52;;;24.00;99.90;;;25.93;64.77;97873.06;10330566;28;20218;-81
2023/09/11 07:40:24;;;;;;;13.07;12.05;;;24.60;99.90;;;26.02;64.84;97869.53;10320015;28;20795;-80
2023/09/11 07:45:27;;;;;;;13.60;12.45;;;24.90;99.90;;;26.55;63.30;97870.16;10320880;28;20238;-78
2023/09/11 07:50:32;;;;;;;14.73;13.52;;;25.60;99.90;;;26.88;61.51;97866.44;10313711;28;20329;-80
2023/09/11 07:55:37;;;;;;;14.02;12.93;;;26.00;99.90;;;27.15;61.08;97857.44;10320543;28;20226;-79
2023/09/11 08:00:41;;;;;;;12.60;11.60;;;26.10;99.90;;;27.50;59.82;97851.00;10312494;28;22477;-79
2023/09/11 08:05:45;;;;;;;12.98;11.98;;;26.70;99.90;;;27.54;59.60;97853.59;10308960;28;20230;-78
2023/09/11 08:10:49;;;;;;;12.65;11.65;;;26.70;99.90;;;27.90;58.25;97853.22;10306265;28;20359;-77
2023/09/11 08:15:52;;;;;;;12.38;11.27;;;27.00;99.90;;;28.34;56.43;97851.78;10305972;28;21056;-79
2023/09/11 08:20:57;;;;;;;13.57;12.48;;;27.60;99.90;;;28.46;55.96;97852.47;10313445;28;20920;-81
2023/09/11 08:26:02;;;;;;;12.75;11.65;;;27.50;99.90;;;28.67;55.82;97847.78;10308045;28;20990;-77
2023/09/11 08:31:05;;;;;;;11.80;10.90;;;27.70;99.90;;;28.87;54.27;97856.25;10308633;28;20296;-77
2023/09/11 08:36:10;;;;;;;12.27;11.32;;;28.10;99.90;;;28.99;53.20;97852.56;10310206;28;20329;-79
2023/09/11 08:41:15;;;;;;;11.90;10.90;;;28.20;99.90;;;29.23;52.44;97853.06;10322593;28;20230;-80
2023/09/11 08:46:19;;;;;;;11.00;10.15;;;28.50;99.90;;;29.17;52.63;97854.03;10307875;28;20684;-80
2023/09/11 08:51:30;;;;;;;11.88;10.95;;;28.30;99.90;;;29.37;52.32;97844.00;10303477;28;20226;-80
2023/09/11 08:56:33;;;;;;;11.60;10.70;;;28.50;99.90;;;29.38;51.35;97848.38;10325489;28;20338;-80
2023/09/11 09:01:37;;;;;;;11.20;10.20;;;28.60;99.80;;;29.56;50.72;97848.91;10322303;28;20261;-81
2023/09/11 09:06:42;;;;;;;9.93;9.23;;;28.90;98.30;;;29.88;50.19;97848.34;10302829;28;20241;-80
2023/09/11 09:11:48;;;;;;;10.80;9.80;;;29.30;98.10;;;29.76;50.07;97843.28;10301598;28;20613;-80
2023/09/11 09:16:52;;;;;;;10.23;9.43;;;29.10;97.70;;;29.89;48.96;97834.25;10311686;28;20230;-80
2023/09/11 09:22:13;;;;;;;10.38;9.38;;;29.40;96.20;;;30.22;47.43;97831.84;10303548;28;20233;-79
2023/09/11 09:27:17;;;;;;;10.27;9.50;;;29.70;95.60;;;30.24;48.72;97830.00;10305924;28;20731;-80
2023/09/11 09:32:20;;;;;;;10.05;9.30;;;29.60;96.70;;;30.25;49.08;97821.22;10298549;28;20298;-78
2023/09/11 09:37:26;;;;;;;10.05;9.25;;;29.70;96.90;;;30.42;47.46;97823.44;10296324;28;20320;-78
2023/09/11 09:42:41;;;;;;;10.35;9.45;;;29.80;95.60;;;30.56;46.13;97820.50;10297154;28;20368;-77
2023/09/11 09:47:44;;;;;;;9.20;8.40;;;29.80;94.80;;;30.67;45.54;97818.47;10296128;28;20254;-77
2023/09/11 09:52:49;;;;;;;9.98;9.00;;;30.00;94.00;;;30.61;45.85;97813.34;10298858;28;20744;-81
2023/09/11 09:57:52;;;;;;;9.70;8.90;;;30.00;94.10;;;30.95;43.93;97809.00;10309503;28;20328;-78
2023/09/11 10:02:56;;;;;;;9.15;8.35;;;30.00;93.40;;;30.96;44.10;97802.81;10300031;28;20309;-80
2023/09/11 10:08:01;;;;;;;9.27;8.48;;;30.20;92.80;;;30.92;43.68;97793.22;10299465;28;20227;-79
2023/09/11 10:13:08;;;;;;;10.13;9.23;;;30.30;92.20;;;30.98;44.44;97787.78;10291984;28;20247;-79
2023/09/11 10:18:13;;;;;;;8.95;8.10;;;30.30;93.10;;;31.11;43.77;97784.84;10310691;28;20394;-81
2023/09/11 10:23:17;;;;;;;8.82;8.15;;;30.40;92.50;;;31.20;43.19;97779.31;10299828;28;20226;-78
2023/09/11 10:28:27;;;;;;;9.18;8.02;;;30.60;91.70;;;31.30;43.34;97767.56;10316750;28;20230;-79
2023/09/11 10:33:32;;;;;;;8.40;7.70;;;30.60;92.10;;;31.41;42.40;97769.94;10306213;28;20727;-80
2023/09/11 10:38:38;;;;;;;8.27;7.40;;;30.70;91.20;;;31.29;41.88;97765.84;10307099;28;20305;-79
2023/09/11 10:43:44;;;;;;;8.77;7.78;;;30.60;90.90;;;31.34;40.79;97768.38;10297826;28;20309;-81
2023/09/11 10:48:48;;;;;;;8.95;8.10;;;30.80;89.70;;;31.14;40.97;97763.63;10305217;28;20254;-78
2023/09/11 10:53:53;;;;;;;8.82;7.97;;;30.50;90.00;;;30.96;42.10;97762.31;10304772;28;21016;-76
2023/09/11 10:58:57;;;;;;;8.50;6.72;;;30.40;90.60;;;30.61;40.73;97755.28;10301184;28;20761;-77
2023/09/11 11:04:03;;;;;;;6.90;6.18;;;30.00;88.30;;;30.94;38.82;97753.59;10296398;28;20820;-76
2023/09/11 11:09:24;;;;;;;6.53;6.03;;;30.20;85.60;;;31.11;38.26;97751.38;10304655;28;20333;-78
2023/09/11 11:14:35;;;;;;;8.27;6.07;;;30.40;85.20;;;31.29;39.09;97744.72;10299086;28;20219;-77
2023/09/11 11:19:40;;;;;;;6.78;6.10;;;30.70;86.00;;;30.97;38.62;97748.22;10308399;28;20250;-77
2023/09/11 11:24:55;;;;;;;8.65;6.18;;;30.30;83.60;;;31.08;37.73;97740.03;10312442;28;20223;-77
2023/09/11 11:29:59;;;;;;;6.75;6.10;;;30.40;83.60;;;30.79;39.29;97739.03;10330587;28;20237;-77
2023/09/11 11:35:07;;;;;;;7.03;6.35;;;30.10;85.70;;;30.75;39.33;97735.53;10328341;28;20222;-78
2023/09/11 11:40:13;;;;;;;6.72;6.10;;;30.00;85.80;;;30.68;40.53;97723.44;10333683;28;21042;-77
2023/09/11 11:45:16;;;;;;;7.90;6.35;;;30.00;87.40;;;30.52;39.29;97725.56;10331973;28;20633;-78
2023/09/11 11:50:21;;;;;;;6.93;6.22;;;29.80;85.20;;;30.44;41.19;97727.53;10330837;28;20229;-78
2023/09/11 11:55:26;;;;;;;9.32;6.30;;;29.80;88.30;;;30.23;40.83;97721.03;10323724;28;20223;-77
2023/09/11 12:00:29;;;;;;;6.35;5.82;;;29.60;87.20;;;30.34;41.32;97720.78;10334344;28;20289;-77
2023/09/11 12:05:33;;;;;;;8.75;5.95;;;29.70;87.70;;;30.60;40.21;97714.84;10334777;28;20254;-77
2023/09/11 12:10:44;;;;;;;8.57;6.20;;;29.90;86.50;;;30.77;39.67;97716.19;10336754;28;20229;-76
2023/09/11 12:15:52;;;;;;;8.52;6.05;;;30.10;85.60;;;30.80;36.97;97709.06;10326962;28;20245;-77
2023/09/11 12:20:59;;;;;;;7.65;6.13;;;30.10;80.90;;;30.44;39.18;97710.84;10327563;28;20289;-77
2023/09/11 12:26:04;;;;;;;8.27;6.45;;;29.80;84.20;;;30.74;40.69;97711.84;10328245;28;20234;-77
2023/09/11 12:31:08;;;;;;;8.57;5.97;;;29.90;87.20;;;30.96;40.11;97710.41;10337905;28;20248;-76
2023/09/11 12:36:11;;;;;;;7.93;5.80;;;30.20;86.60;;;31.02;38.55;97705.84;10331778;28;20771;-77
2023/09/11 12:41:16;;;;;;;10.05;6.25;;;30.20;83.70;;;30.93;37.32;97706.97;10330208;28;20230;-77
2023/09/11 12:46:20;;;;;;;9.40;5.93;;;30.20;81.60;;;30.91;37.88;97692.97;10329036;28;20234;-77
2023/09/11 12:51:23;;;;;;;7.15;6.15;;;30.20;82.30;;;31.03;37.63;97684.69;10335039;28;20316;-77
2023/09/11 12:56:28;;;;;;;7.93;6.03;;;30.20;82.40;;;30.83;39.17;97677.31;10338700;28;20226;-77
2023/09/11 13:01:32;;;;;;;8.32;6.10;;;30.20;83.80;;;30.64;38.73;97681.31;10328642;28;20244;-78
2023/09/11 13:06:35;;;;;;;8.05;5.97;;;30.00;83.30;;;30.55;38.27;97676.28;10327319;28;20723;-77
2023/09/11 13:11:40;;;;;;;7.15;5.90;;;29.80;82.50;;;30.44;38.79;97677.41;10328561;28;20269;-77
2023/09/11 13:16:45;;;;;;;8.32;6.05;;;29.60;83.00;;;30.39;39.03;97674.03;10330576;28;20257;-78
2023/09/11 13:21:48;;;;;;;8.88;5.85;;;29.60;83.50;;;30.36;39.89;97666.22;10327353;28;20234;-78
2023/09/11 13:26:53;;;;;;;8.65;6.75;;;29.60;84.80;;;30.21;39.33;97656.00;10326610;28;20254;-78
2023/09/11 13:31:56;;;;;;;7.88;6.40;;;29.50;84.00;;;30.07;40.88;97653.69;10333983;28;20258;-78
2023/09/11 13:37:00;;;;;;;7.03;6.30;;;29.40;85.90;;;30.14;40.22;97650.00;10324642;28;20721;-78
2023/09/11 13:42:05;;;;;;;6.78;6.00;;;29.30;86.00;;;30.28;39.81;97644.44;10328426;28;20230;-78
2023/09/11 13:47:08;;;;;;;6.55;5.85;;;29.40;85.10;;;30.53;40.51;97648.19;10322791;28;20250;-76
2023/09/11 13:52:11;;;;;;;6.95;5.70;;;29.70;85.70;;;30.18;39.08;97643.75;10327546;28;20325;-77
2023/09/11 13:57:16;;;;;;;6.80;6.15;;;29.50;83.30;;;30.23;40.25;97646.31;10323580;28;20241;-77
2023/09/11 14:02:20;;;;;;;10.45;6.10;;;29.50;84.80;;;30.23;39.36;97638.41;10326662;28;20237;-77
2023/09/11 14:07:24;;;;;;;7.68;6.25;;;29.40;83.90;;;30.19;39.24;97636.69;10329331;28;20322;-77
2023/09/11 14:12:28;;;;;;;8.55;5.70;;;29.40;83.10;;;30.42;38.95;97642.31;10336988;28;20277;-77
2023/09/11 14:17:32;;;;;;;9.15;6.13;;;29.50;83.50;;;30.18;39.28;97629.69;10328106;28;20231;-78
2023/09/11 14:22:35;;;;;;;9.50;6.10;;;29.40;83.40;;;30.11;40.04;97623.72;10323485;28;20238;-77
2023/09/11 14:27:42;;;;;;;7.13;5.93;;;29.30;83.90;;;30.08;39.80;97622.03;10295843;28;20415;-76
2023/09/11 14:32:45;;;;;;;6.78;5.38;;;29.20;84.60;;;30.08;40.21;97614.13;10299924;28;20369;-76
2023/09/11 14:37:49;;;;;;;11.00;6.32;;;29.20;84.70;;;30.08;40.19;97614.13;10295352;28;20250;-77
2023/09/11 14:42:53;;;;;;;6.93;6.25;;;29.20;84.60;;;30.05;40.27;97606.28;10287537;28;20254;-77
2023/09/11 14:47:57;;;;;;;8.75;6.32;;;29.10;85.10;;;30.11;40.31;97612.31;10298318;28;20339;-77
2023/09/11 14:53:01;;;;;;;8.25;6.00;;;29.20;84.70;;;30.04;40.10;97603.66;10302425;28;20222;-77
2023/09/11 14:58:05;;;;;;;7.82;6.13;;;29.20;84.50;;;30.10;40.85;97600.88;10295493;28;20325;-77
2023/09/11 15:03:09;;;;;;;10.07;6.45;;;29.30;85.40;;;30.04;40.27;97595.75;10305771;28;20230;-76
2023/09/11 15:08:12;;;;;;;6.97;6.28;;;29.20;84.30;;;29.98;40.16;97596.78;10306894;28;20228;-76
2023/09/11 15:13:17;;;;;;;7.65;5.47;;;29.10;84.50;;;29.88;39.73;97597.94;10302947;28;20227;-76
2023/09/11 15:18:20;;;;;;;6.55;5.65;;;29.00;84.30;;;29.77;40.04;97594.69;10297800;28;20520;-77
2023/09/11 15:23:24;;;;;;;8.48;5.85;;;28.90;84.30;;;29.80;40.00;97586.69;10291861;28;20225;-77
2023/09/11 15:28:30;;;;;;;6.47;5.85;;;28.90;84.20;;;29.74;40.32;97592.13;10303666;28;20230;-77
2023/09/11 15:33:36;;;;;;;7.95;6.50;;;28.90;84.60;;;29.73;40.57;97590.38;10307715;28;20241;-77
2023/09/11 15:38:42;;;;;;;8.18;6.80;;;28.80;84.90;;;29.61;41.06;97586.22;10303011;28;20748;-76
2023/09/11 15:43:48;;;;;;;7.70;5.80;;;28.80;85.80;;;29.57;41.02;97585.44;10298260;28;20223;-77
2023/09/11 15:48:51;;;;;;;8.75;6.03;;;28.70;85.20;;;29.56;41.80;97582.84;10301279;28;20238;-76
2023/09/11 15:53:55;;;;;;;13.10;6.13;;;28.60;86.50;;;29.47;42.39;97589.19;10294351;28;20270;-76
2023/09/11 15:58:59;;;;;;;8.45;6.07;;;28.60;87.10;;;29.32;42.09;97594.81;10294075;28;20223;-76
2023/09/11 16:04:02;;;;;;;7.72;6.32;;;28.40;87.10;;;29.22;42.80;97595.88;10296791;28;20222;-77
2023/09/11 16:09:06;;;;;;;8.70;6.43;;;28.30;88.10;;;29.08;43.75;97585.69;10288718;28;20229;-76
2023/09/11 16:14:11;;;;;;;8.07;6.45;;;28.20;90.10;;;28.95;44.18;97585.03;10322999;28;20226;-77
2023/09/11 16:19:21;;;;;;;8.25;6.18;;;28.00;90.30;;;28.83;45.28;97586.16;10322309;28;20257;-77
2023/09/11 16:24:25;;;;;;;8.40;6.13;;;27.90;90.90;;;28.68;45.69;97589.97;10323490;28;20226;-78
2023/09/11 16:29:29;;;;;;;6.65;6.00;;;27.70;91.10;;;28.56;46.33;97587.56;10317455;28;20223;-77
2023/09/11 16:34:33;;;;;;;8.75;6.35;;;27.60;91.50;;;28.41;46.96;97587.81;10317816;28;20230;-77
2023/09/11 16:39:41;;;;;;;8.00;7.13;;;27.40;91.90;;;28.26;47.39;97591.59;10310647;28;20266;-76
2023/09/11 16:44:45;;;;;;;7.47;6.78;;;27.30;92.50;;;28.09;47.72;97594.50;10307743;28;20233;-78
2023/09/11 16:49:49;;;;;;;8.73;6.82;;;27.10;92.90;;;27.88;48.81;97602.75;10297763;28;20230;-77
2023/09/11 16:54:52;;;;;;;8.88;6.55;;;26.80;93.60;;;27.64;50.06;97604.81;10310389;28;20289;-77
2023/09/11 17:00:00;;;;;;;8.10;7.28;;;26.60;94.30;;;27.42;52.02;97598.19;10312301;28;20239;-76
2023/09/11 17:05:07;;;;;;;7.97;7.18;;;26.30;96.40;;;27.08;55.20;97594.22;10317391;28;20222;-78
2023/09/11 17:10:12;;;;;;;9.18;7.03;;;25.90;98.90;;;26.82;58.17;97591.91;10317343;28;20235;-77
2023/09/11 17:15:17;;;;;;;9.80;7.15;;;25.70;99.90;;;26.63;59.88;97590.38;10321140;28;20660;-79
2023/09/11 17:20:22;;;;;;;8.23;7.05;;;25.60;99.90;;;26.38;60.94;97595.84;10314170;28;20228;-77
2023/09/11 17:25:25;;;;;;;8.23;7.38;;;25.30;99.90;;;26.15;62.92;97593.44;10317358;28;20234;-78
2023/09/11 17:30:30;;;;;;;8.60;7.70;;;25.10;99.90;;;25.96;63.49;97594.53;10319936;28;20258;-78
2023/09/11 17:35:34;;;;;;;8.88;7.43;;;24.90;99.90;;;25.86;63.73;97591.09;10314789;28;20218;-79
2023/09/11 17:40:37;;;;;;;8.40;7.53;;;24.70;99.90;;;25.60;65.50;97594.75;10324058;28;20257;-79
2023/09/11 17:45:42;;;;;;;9.68;7.15;;;24.50;99.90;;;25.45;65.54;97584.38;10316550;28;20289;-79
2023/09/11 17:50:51;;;;;;;9.25;7.60;;;24.40;99.90;;;25.31;65.72;97580.97;10315224;28;20250;-78
2023/09/11 17:55:54;;;;;;;9.18;7.93;;;24.20;99.90;;;25.04;68.01;97581.94;10311923;28;20302;-78
2023/09/11 18:00:59;;;;;;;7.93;7.22;;;24.00;99.90;;;24.82;69.04;97595.13;10314888;28;20234;-79
2023/09/11 18:06:02;;;;;;;8.75;7.82;;;23.70;99.90;;;24.62;69.64;97603.06;10311332;28;20238;-77
2023/09/11 18:11:06;;;;;;;9.50;7.57;;;23.60;99.90;;;24.49;71.04;97609.16;10325336;28;20237;-78
2023/09/11 18:16:10;;;;;;;9.88;8.00;;;23.40;99.90;;;24.26;72.16;97617.00;10312592;28;20242;-77
2023/09/11 18:21:13;;;;;;;7.88;7.18;;;23.20;99.90;;;24.09;72.33;97624.00;10321599;28;20724;-77
2023/09/11 18:26:17;;;;;;;8.50;7.65;;;23.00;99.90;;;23.99;72.00;97629.22;10320399;28;20617;-76
2023/09/11 18:31:22;;;;;;;9.05;7.65;;;22.90;99.90;;;23.85;71.77;97643.16;10323258;28;20325;-77
2023/09/11 18:36:25;;;;;;;11.68;8.57;;;22.80;99.90;;;23.71;73.48;97644.00;10325236;28;20234;-79
2023/09/11 18:41:28;;;;;;;8.77;7.93;;;22.80;99.90;;;23.56;74.32;97638.72;10321251;28;20231;-76
2023/09/11 18:46:33;;;;;;;9.32;8.50;;;22.60;99.90;;;23.45;74.45;97645.66;10326670;28;20916;-76
2023/09/11 18:51:36;;;;;;;10.05;8.48;;;22.40;99.90;;;23.28;74.07;97648.22;10326568;28;20313;-75
2023/09/11 18:56:40;;;;;;;10.10;7.88;;;22.30;99.90;;;23.22;74.23;97645.59;10322952;28;20235;-76
2023/09/11 19:01:45;;;;;;;8.95;7.90;;;22.10;99.90;;;23.07;74.09;97638.59;10323153;28;20246;-77
2023/09/11 19:06:48;;;;;;;9.98;8.00;;;22.00;99.90;;;22.91;74.12;97648.03;10330614;28;21008;-77
2023/09/11 19:11:52;;;;;;;13.20;8.30;;;21.90;99.90;;;22.76;74.63;97638.41;10326595;28;20254;-77
2023/09/11 19:16:58;;;;;;;8.90;8.07;;;21.70;99.90;;;22.51;75.82;97649.53;10328391;28;20701;-77
2023/09/11 19:22:01;;;;;;;9.88;8.18;;;21.40;99.90;;;22.38;76.62;97651.22;10328655;28;20242;-77
2023/09/11 19:27:05;;;;;;;8.65;7.82;;;21.40;99.90;;;22.32;77.07;97657.25;10331783;28;20298;-76
2023/09/11 19:32:10;;;;;;;8.85;7.78;;;21.40;99.90;;;22.25;78.23;97658.03;10302595;28;20358;-76
2023/09/11 19:37:15;;;;;;;11.23;8.88;;;21.30;99.90;;;22.09;79.17;97648.31;10283398;28;20232;-77
2023/09/11 19:42:18;;;;;;;10.30;8.70;;;21.10;99.90;;;21.98;80.10;97656.94;10324312;28;20306;-76
2023/09/11 19:47:23;;;;;;;9.90;8.23;;;21.00;99.90;;;21.90;81.74;97650.78;10325927;28;20798;-77
2023/09/11 19:52:27;;;;;;;9.88;8.27;;;20.80;99.90;;;21.76;81.93;97652.41;10327461;28;20236;-76
2023/09/11 19:57:33;;;;;;;9.98;8.43;;;20.70;99.90;;;21.66;81.88;97648.84;10322190;28;20238;-77
2023/09/11 20:02:38;;;;;;;10.52;8.13;;;20.60;99.90;;;21.62;81.63;97646.19;10306390;28;21225;-78
2023/09/11 20:07:43;;;;;;;10.38;9.18;;;20.60;99.90;;;21.47;81.30;97652.97;10312640;28;20222;-77
2023/09/11 20:12:47;;;;;;;9.52;8.52;;;20.50;99.90;;;21.32;82.48;97651.06;10299387;28;20338;-77
2023/09/11 20:17:52;;;;;;;9.00;7.97;;;20.40;99.90;;;21.19;83.14;97640.50;10306218;28;20223;-77
2023/09/11 20:22:55;;;;;;;10.80;8.80;;;20.20;99.90;;;21.03;84.09;97640.31;10304724;28;20222;-76
2023/09/11 20:27:58;;;;;;;10.63;8.57;;;20.00;99.90;;;20.94;84.60;97642.78;10301057;28;20254;-76
2023/09/11 20:33:03;;;;;;;9.35;8.50;;;19.90;99.90;;;20.98;84.70;97641.97;10305977;28;20929;-77
2023/09/11 20:38:07;;;;;;;12.48;8.98;;;19.90;99.90;;;20.76;84.74;97639.97;10293042;28;20254;-76
2023/09/11 20:43:10;;;;;;;9.70;8.70;;;19.80;99.90;;;20.76;84.36;97642.56;10293776;28;20309;-76
2023/09/11 20:48:15;;;;;;;10.90;8.77;;;19.80;99.90;;;20.68;84.69;97632.91;10305014;28;20246;-76
2023/09/11 20:53:18;;;;;;;11.93;9.10;;;19.80;99.90;;;20.69;85.27;97637.28;10307665;28;20222;-76